Date,TemperatureHighF,TemperatureAvgF,TemperatureLowF,DewpointHighF,DewpointAvgF,DewpointLowF,HumidityHigh,HumidityAvg,HumidityLow,PressureMaxIn,PressureMinIn,WindSpeedMaxMPH,WindSpeedAvgMPH,GustSpeedMaxMPH,PrecipitationSumIn
2013-1-1,46,42,36,45,41,33,98,95,89,30.23,30.02,21,7,21,0.48
2013-1-2,36,33,30,33,29,26,91,85,75,30.32,30.21,14,5,15,0.00
2013-1-3,43,36,30,36,32,28,96,86,64,30.47,30.31,14,3,15,0.00
2013-1-4,47,38,30,38,34,29,96,84,63,30.55,30.41,10,1,10,0.00
2013-1-5,44,40,33,41,38,32,96,92,82,30.45,30.31,11,2,11,0.04
2013-1-6,51,40,33,44,37,33,99,90,68,30.41,30.29,10,2,10,0.01
2013-1-7,48,38,32,37,32,28,94,82,62,30.45,30.23,12,2,12,0.00
2013-1-8,59,46,34,49,41,32,95,81,67,30.29,30.15,9,1,9,0.00
2013-1-9,57,54,50,57,53,46,99,96,82,30.31,30.20,16,4,17,0.76
2013-1-10,67,62,57,64,61,56,99,96,89,30.24,29.90,27,7,27,1.18
2013-1-11,67,61,52,64,57,51,97,87,67,30.07,29.95,16,5,16,0.00
2013-1-12,72,68,65,69,66,64,100,93,84,29.97,29.75,23,7,23,0.16
2013-1-13,70,45,35,66,43,31,98,93,86,30.27,29.76,27,12,27,2.80
2013-1-14,35,31,29,32,28,26,92,89,85,30.40,30.25,25,11,25,0.01
2013-1-15,32,30,29,31,29,27,97,93,89,30.27,30.09,15,5,21,0.00
2013-1-16,35,33,31,33,31,29,97,93,89,30.23,30.11,6,0,6,0.08
2013-1-17,50,40,34,42,35,31,92,82,68,30.51,30.17,22,6,22,0.06
2013-1-18,52,40,32,39,34,29,93,78,56,30.61,30.39,9,1,9,0.00
2013-1-19,57,45,35,44,38,32,92,79,52,30.39,30.23,14,4,14,0.00
2013-1-20,62,48,38,46,40,35,92,78,54,30.29,30.17,15,2,15,0.00
2013-1-21,45,39,34,37,30,25,83,70,49,30.37,30.19,26,8,26,0.00
2013-1-22,44,37,30,33,28,22,85,69,52,30.46,30.34,11,2,11,0.00
2013-1-23,61,47,38,50,41,32,95,79,65,30.37,30.20,13,2,13,0.00
2013-1-24,50,46,43,48,36,28,94,69,51,30.40,30.20,20,6,21,0.00
2013-1-25,52,43,37,51,40,36,97,90,68,30.27,30.10,18,4,18,0.04
2013-1-26,49,43,33,44,39,32,98,87,74,30.36,30.26,11,1,11,0.01
2013-1-27,65,57,49,58,51,43,84,81,76,30.27,30.14,15,3,15,0.00
2013-1-28,68,62,58,62,59,54,93,88,83,30.20,30.07,23,7,23,0.00
2013-1-29,75,68,62,67,63,60,96,86,67,30.07,29.53,56,10,57,1.46
2013-1-30,64,50,39,59,44,30,98,80,61,30.10,29.58,34,10,41,1.14
2013-1-31,56,43,34,43,31,-100,91,71,50,30.35,30.10,24,-28,24,0.00
2013-2-1,39,33,28,29,23,18,83,67,52,30.56,30.32,25,5,25,0.00
2013-2-2,53,41,34,42,35,26,94,78,59,30.32,30.20,14,2,14,0.01
2013-2-3,57,46,36,41,35,32,91,69,39,30.27,30.14,21,5,22,0.00
2013-2-4,56,48,40,47,40,34,92,76,58,30.14,29.94,18,4,18,0.03
2013-2-5,62,52,43,54,49,42,96,89,73,30.09,29.94,7,1,7,0.00
2013-2-6,62,50,39,52,46,38,99,87,60,30.20,30.03,10,2,10,0.02
2013-2-7,68,58,52,59,54,47,96,86,73,30.04,29.89,10,2,10,0.12
2013-2-8,59,48,38,58,44,34,97,86,77,30.32,29.92,30,11,30,0.07
2013-2-9,55,45,33,44,37,31,94,76,53,30.33,30.05,12,3,12,0.00
2013-2-10,61,57,53,60,54,42,98,89,64,30.05,29.78,22,6,22,0.91
2013-2-11,58,52,48,57,43,35,98,72,53,30.24,30.00,14,3,14,0.00
2013-2-12,50,47,44,44,42,40,97,83,67,30.18,29.82,17,3,17,0.25
2013-2-13,46,43,40,44,41,38,98,91,80,30.09,29.82,19,5,19,0.01
2013-2-14,60,48,38,47,42,36,96,81,54,30.12,30.05,16,5,16,0.01
2013-2-15,54,46,39,43,37,31,92,71,47,30.25,30.09,20,7,20,0.00
2013-2-16,41,37,32,32,26,22,77,64,50,30.32,30.24,19,6,19,0.00
2013-2-17,56,45,34,41,34,27,79,66,49,30.31,30.11,22,6,22,0.00
2013-2-18,60,52,44,54,46,39,96,82,72,30.13,29.79,40,10,40,0.53
2013-2-19,51,44,35,44,35,30,90,71,49,30.32,29.99,27,7,27,0.00
2013-2-20,40,37,35,32,26,21,88,65,56,30.38,30.17,23,6,23,0.00
2013-2-21,49,43,38,47,37,28,97,79,52,30.17,29.73,22,6,22,0.46
2013-2-22,48,42,36,45,40,35,99,93,82,30.13,29.92,14,3,14,0.01
2013-2-23,50,41,34,40,36,30,90,81,63,30.09,29.99,15,6,15,0.00
2013-2-24,60,46,33,43,37,31,93,72,48,30.11,29.88,14,3,14,0.00
2013-2-25,62,53,46,57,47,38,97,78,68,29.88,29.34,24,8,24,0.86
2013-2-26,52,45,41,51,39,35,95,80,69,29.91,29.41,29,12,29,0.01
2013-2-27,52,42,34,42,37,32,94,80,68,30.05,29.91,19,5,19,0.00
2013-2-28,47,41,35,36,33,30,91,75,61,30.15,30.04,21,6,21,0.00
2013-3-1,40,37,34,32,30,28,87,77,64,30.22,30.15,17,6,17,0.00
2013-3-2,37,34,27,30,27,23,89,75,60,30.31,30.20,24,8,24,0.00
2013-3-3,47,37,26,33,28,23,92,73,50,30.30,30.08,12,2,12,0.00
2013-3-4,65,53,39,54,42,29,82,66,52,30.08,29.76,25,8,27,0.00
2013-3-5,61,52,42,59,42,27,95,70,41,30.24,29.80,34,12,34,0.03
2013-3-6,48,40,34,33,29,26,80,64,52,30.40,30.23,22,6,22,0.00
2013-3-7,55,44,36,36,33,30,86,67,46,30.42,30.29,12,2,12,0.00
2013-3-8,63,50,36,43,36,31,84,60,30,30.40,30.18,13,2,13,0.00
2013-3-9,67,59,51,49,42,36,71,53,43,30.18,29.94,22,4,22,0.00
2013-3-10,66,59,52,61,55,47,97,88,65,29.97,29.79,46,7,46,0.98
2013-3-11,51,45,40,47,38,33,90,78,63,30.07,29.89,18,7,18,0.00
2013-3-12,58,46,34,43,36,30,96,71,42,30.24,30.06,15,3,15,0.01
2013-3-13,48,47,45,40,38,36,81,72,65,30.31,30.24,15,6,15,0.00
2013-3-14,54,52,50,44,40,36,71,63,59,30.36,30.20,10,7,10,0.00
2013-3-15,77,62,48,56,49,42,81,64,43,30.20,29.94,26,10,26,0.00
2013-3-16,77,66,56,58,55,52,93,70,49,29.99,29.84,31,11,31,0.00
2013-3-17,76,66,56,61,57,53,92,74,57,29.93,29.72,27,9,27,0.00
2013-3-18,70,61,49,64,56,46,94,84,63,30.06,29.69,47,11,47,0.28
2013-3-19,61,51,41,46,41,35,96,70,43,30.21,30.05,22,6,22,0.00
2013-3-20,59,50,41,36,32,24,78,51,32,30.28,30.11,32,8,32,0.00
2013-3-21,50,43,33,38,25,18,84,51,36,30.15,29.93,15,5,15,0.13
2013-3-22,52,46,41,48,43,38,97,90,83,29.97,29.86,18,5,18,0.34
2013-3-23,54,50,47,52,49,46,98,96,92,29.97,29.61,17,5,17,1.32
2013-3-24,51,47,39,51,42,30,99,83,65,30.05,29.62,35,12,35,0.01
2013-3-25,44,39,33,32,28,25,77,66,54,30.31,30.05,26,11,26,0.00
2013-3-26,47,39,33,33,29,26,83,69,50,30.43,30.31,14,6,22,0.00
2013-3-27,56,44,30,37,33,28,92,67,42,30.47,30.31,16,2,16,0.00
2013-3-28,68,54,37,43,38,34,89,60,34,30.37,30.24,11,2,11,0.00
2013-3-29,62,56,50,57,49,39,95,78,50,30.32,30.17,17,4,17,0.73
2013-3-30,62,57,54,61,56,53,98,96,92,30.19,29.96,9,1,9,0.38
2013-3-31,64,59,54,62,57,53,99,94,88,29.99,29.89,35,4,35,0.54
2013-4-1,70,58,47,58,52,46,99,82,58,30.12,29.97,16,2,16,0.01
2013-4-2,58,52,45,49,42,37,80,69,54,30.23,30.10,24,9,24,0.00
2013-4-3,45,43,42,41,39,37,92,87,75,30.23,30.11,25,9,25,0.61
2013-4-4,47,45,44,45,43,41,97,93,80,30.13,30.00,16,7,16,0.11
2013-4-5,65,53,42,51,46,41,98,79,46,30.22,30.08,13,3,13,0.00
2013-4-6,72,59,47,54,49,44,94,71,47,30.14,29.95,22,5,22,0.00
2013-4-7,73,64,56,59,55,50,92,75,57,30.08,29.93,19,6,21,0.00
2013-4-8,79,69,61,64,60,56,91,76,55,30.00,29.87,25,6,25,0.00
2013-4-9,71,71,71,67,64,62,85,79,74,29.90,29.89,4,3,7,0.00
2013-4-10,82,74,68,70,68,66,96,82,65,29.94,29.67,23,4,26,1.34
2013-4-11,68,53,49,66,52,47,97,95,93,29.86,29.73,21,8,21,1.61
2013-4-12,61,51,43,54,47,42,96,87,72,30.02,29.86,4,0,4,0.01
2013-4-13,55,54,53,52,51,50,91,89,87,30.03,30.02,5,0,5,0.00
2013-4-14,70,67,61,60,58,55,88,73,66,29.95,29.75,19,6,19,0.00
2013-4-15,81,68,58,67,62,56,97,83,59,29.95,29.76,17,4,17,0.00
2013-4-16,84,76,70,73,70,66,95,83,67,30.06,29.91,23,7,23,0.00
2013-4-17,84,76,68,72,70,66,96,80,63,30.09,29.85,21,5,21,0.00
2013-4-18,80,70,49,70,64,45,96,84,67,29.93,29.62,30,11,30,1.74
2013-4-19,56,49,45,46,40,34,89,70,50,30.20,29.91,24,8,24,0.00
2013-4-20,68,56,43,50,43,36,94,65,35,30.30,30.19,10,1,10,0.00
2013-4-21,70,60,49,50,44,37,81,59,34,30.33,30.17,15,2,15,0.00
2013-4-22,76,64,49,56,50,45,86,63,38,30.21,30.01,19,2,19,0.00
2013-4-23,78,69,62,66,62,54,92,78,60,30.07,29.91,21,6,21,0.00
2013-4-24,71,53,46,66,48,42,94,82,66,30.32,29.91,26,9,26,0.14
2013-4-25,69,55,40,47,42,37,96,65,33,30.43,30.31,16,2,16,0.01
2013-4-26,71,61,50,53,47,42,82,61,40,30.35,30.19,18,3,18,0.00
2013-4-27,78,69,60,68,62,52,95,80,68,30.20,29.91,27,8,27,0.37
2013-4-28,69,32,57,63,-22,-100,95,39,66,30.02,29.95,17,-505,17,0.00
2013-4-29,82,68,54,65,58,52,96,74,43,30.03,29.89,11,1,11,0.01
2013-4-30,85,72,57,66,59,54,91,66,38,29.96,29.87,15,1,15,0.00
2013-5-1,72,68,66,67,65,63,97,90,75,30.04,29.92,19,3,19,0.73
2013-5-2,67,65,63,65,62,60,98,90,84,30.09,30.00,13,3,13,0.36
2013-5-3,64,48,42,64,46,40,98,93,80,30.04,29.93,24,8,24,2.25
2013-5-4,57,49,40,51,45,39,97,86,72,30.01,29.89,20,3,20,0.04
2013-5-5,60,52,45,51,47,43,95,84,63,30.01,29.90,18,7,18,0.01
2013-5-6,66,59,52,59,55,48,95,87,75,29.99,29.92,21,6,21,0.08
2013-5-7,75,65,54,63,58,53,97,82,59,30.05,29.95,15,2,15,0.00
2013-5-8,82,70,56,63,60,55,98,75,48,30.12,30.02,11,1,11,0.00
2013-5-9,80,72,64,66,63,60,90,74,53,30.11,29.97,25,7,25,0.29
2013-5-10,78,69,65,70,66,62,97,89,72,30.00,29.86,19,6,19,0.17
2013-5-11,72,66,60,64,60,55,99,82,57,30.08,29.93,17,6,17,0.01
2013-5-12,68,62,55,58,45,36,92,56,34,30.25,30.08,20,7,20,0.00
2013-5-13,78,65,49,56,50,46,93,63,36,30.30,30.14,18,4,18,0.00
2013-5-14,88,74,60,60,56,53,83,57,31,30.19,30.06,23,9,23,0.00
2013-5-15,85,74,62,63,58,54,78,59,38,30.15,29.98,23,9,23,0.02
2013-5-16,77,71,64,66,64,62,93,80,63,30.02,29.87,18,3,18,0.16
2013-5-17,81,73,64,74,70,62,97,90,77,29.95,29.88,26,5,26,0.99
2013-5-18,86,78,72,77,73,71,95,86,69,30.02,29.90,16,6,16,0.00
2013-5-19,86,78,72,74,72,70,95,80,63,29.98,29.87,21,6,21,0.00
2013-5-20,89,81,74,75,73,71,93,78,59,29.97,29.83,25,9,25,0.00
2013-5-21,88,77,64,76,71,63,96,84,59,29.97,29.73,30,8,30,1.66
2013-5-22,80,71,64,70,66,63,98,85,65,29.94,29.78,21,4,21,0.08
2013-5-23,83,74,65,70,67,64,96,78,53,30.09,29.93,11,2,11,0.00
2013-5-24,78,70,63,67,56,49,90,64,37,30.29,30.09,18,6,18,0.00
2013-5-25,82,71,59,60,56,52,84,61,38,30.30,30.15,12,2,12,0.00
2013-5-26,87,76,63,66,62,58,89,65,43,30.21,30.07,13,2,13,0.00
2013-5-27,87,78,72,71,66,60,85,68,44,30.12,29.96,21,6,21,0.00
2013-5-28,88,80,71,72,66,59,86,66,37,30.04,29.95,21,7,21,0.00
2013-5-29,90,77,68,73,69,63,95,77,51,30.04,29.92,46,4,46,0.40
2013-5-30,85,77,72,76,72,71,95,87,68,30.02,29.89,22,4,22,0.06
2013-5-31,88,80,74,76,74,72,94,81,65,30.00,29.84,23,8,23,0.00
2013-6-1,83,75,68,75,72,65,96,88,70,30.03,29.83,29,7,29,0.68
2013-6-2,79,72,68,72,68,64,97,88,72,29.98,29.91,13,4,13,0.13
2013-6-3,81,71,62,69,64,60,95,79,55,30.03,29.92,15,3,15,0.00
2013-6-4,87,76,64,73,68,62,94,76,56,30.00,29.89,9,2,9,0.00
2013-6-5,89,78,73,77,72,70,92,83,57,29.95,29.78,16,3,16,0.00
2013-6-6,83,76,70,72,70,66,99,81,66,29.86,29.73,18,5,18,0.00
2013-6-7,82,74,64,68,62,56,88,69,44,29.92,29.79,15,5,15,0.00
2013-6-8,86,74,58,64,60,54,97,64,36,30.00,29.90,15,2,15,0.00
2013-6-9,89,79,72,74,70,63,91,75,54,29.97,29.82,19,5,19,0.00
2013-6-10,92,81,70,74,71,66,97,73,44,29.97,29.90,21,6,21,0.00
2013-6-11,95,84,74,78,74,71,92,73,48,30.05,29.96,15,5,15,0.00
2013-6-12,94,85,77,80,75,72,92,75,51,30.08,29.95,17,6,17,0.00
2013-6-13,94,85,75,79,74,67,94,72,55,30.00,29.84,18,6,18,0.00
2013-6-14,88,79,67,69,64,58,93,62,39,30.03,29.94,19,4,19,0.00
2013-6-15,92,79,65,69,65,60,90,64,38,30.07,29.95,10,1,10,0.00
2013-6-16,90,80,70,77,72,67,93,77,59,30.04,29.94,12,2,12,0.00
2013-6-17,84,76,72,78,73,70,97,90,78,30.00,29.86,21,2,21,1.26
2013-6-18,81,75,71,74,72,69,98,90,74,30.00,29.86,12,2,12,0.01
2013-6-19,89,78,68,75,71,67,99,80,52,30.05,29.96,10,0,10,0.00
2013-6-20,91,81,70,76,71,68,97,75,51,30.13,30.03,10,1,10,0.00
2013-6-21,92,82,70,77,72,68,97,73,51,30.16,30.06,10,1,10,0.00
2013-6-22,93,83,73,76,72,66,92,70,44,30.13,30.00,10,1,10,0.00
2013-6-23,91,80,74,77,73,69,95,80,55,30.10,30.01,35,2,35,1.02
2013-6-24,92,83,74,79,75,72,95,79,58,30.13,30.01,13,3,13,0.00
2013-6-25,90,83,75,76,74,68,96,77,49,30.09,29.95,17,6,17,0.00
2013-6-26,90,83,76,78,75,72,95,77,57,30.03,29.88,20,7,20,0.00
2013-6-27,94,84,77,82,77,69,93,80,62,29.98,29.85,21,5,21,0.00
2013-6-28,90,82,75,82,76,70,89,80,64,29.88,29.73,15,3,15,0.00
2013-6-29,88,79,71,74,69,62,95,72,45,29.79,29.71,17,3,17,0.00
2013-6-30,81,73,65,69,65,62,93,77,60,29.85,29.73,18,4,18,0.00
2013-7-1,82,72,64,70,66,62,96,81,60,29.96,29.84,15,3,15,0.00
2013-7-2,82,72,61,68,63,59,97,75,51,30.05,29.95,13,2,13,0.00
2013-7-3,83,72,63,70,64,60,97,77,50,30.11,30.01,10,2,10,0.00
2013-7-4,88,76,62,72,66,60,96,73,44,30.05,29.94,9,1,9,0.00
2013-7-5,87,77,70,76,72,68,98,85,62,30.05,29.97,12,2,12,0.07
2013-7-6,88,80,72,74,72,70,98,79,59,30.06,29.96,7,2,14,0.00
2013-7-7,90,80,72,77,74,71,96,83,60,30.09,30.01,10,2,10,0.00
2013-7-8,90,81,73,79,76,72,98,84,64,30.16,30.06,10,2,10,0.01
2013-7-9,91,83,75,80,76,73,95,80,64,30.15,30.02,12,3,12,0.00
2013-7-10,93,84,77,81,77,73,93,80,62,30.08,29.90,16,3,16,0.00
2013-7-11,92,82,74,81,75,70,94,81,58,29.96,29.86,18,1,18,0.02
2013-7-12,85,77,68,71,68,64,93,74,55,30.02,29.93,16,4,16,0.00
2013-7-13,84,74,64,69,65,62,94,75,52,30.03,29.94,13,2,13,0.00
2013-7-14,89,78,66,76,70,63,93,78,51,30.07,29.95,22,3,22,0.00
2013-7-15,90,80,70,77,73,68,97,82,58,30.17,30.05,10,2,10,0.05
2013-7-16,89,81,73,77,73,71,96,80,55,30.25,30.16,15,3,15,0.00
2013-7-17,93,82,72,79,74,69,95,78,54,30.29,30.14,9,1,9,0.00
2013-7-18,90,76,71,81,73,70,99,92,65,30.18,30.06,31,1,31,1.00
2013-7-19,86,77,69,77,73,69,99,88,65,30.09,29.95,8,1,8,0.01
2013-7-20,91,82,74,79,76,72,97,82,63,29.99,29.86,13,2,13,0.00
2013-7-21,89,82,74,78,75,72,95,81,64,29.99,29.88,15,4,15,0.00
2013-7-22,89,80,75,80,76,67,94,87,66,29.99,29.88,37,6,37,0.04
2013-7-23,86,79,71,80,76,70,97,91,78,30.01,29.85,24,4,24,0.56
2013-7-24,84,78,73,78,75,72,98,91,78,29.96,29.83,12,2,12,0.00
2013-7-25,82,74,68,74,69,66,97,84,64,30.08,29.95,13,2,13,0.01
2013-7-26,80,72,62,73,68,61,99,87,65,30.08,29.98,6,0,6,0.05
2013-7-27,82,74,68,74,71,66,98,89,72,30.00,29.91,11,2,11,0.01
2013-7-28,86,76,66,76,71,65,98,85,65,30.06,29.94,10,2,10,0.01
2013-7-29,90,79,67,76,71,66,96,78,60,30.14,30.05,10,2,10,0.00
2013-7-30,88,81,74,77,74,71,93,80,60,30.14,30.01,12,2,12,0.00
2013-7-31,90,81,74,80,76,69,94,84,65,30.08,29.92,21,3,21,0.02
2013-8-1,88,79,70,80,74,70,99,86,69,30.04,29.96,13,2,13,0.00
2013-8-2,92,80,67,78,72,66,98,80,51,30.02,29.95,8,1,8,0.00
2013-8-3,91,81,75,81,77,73,95,86,69,30.07,29.94,10,2,10,0.00
2013-8-4,89,80,71,80,75,70,99,86,66,30.12,30.01,12,2,12,0.00
2013-8-5,92,81,75,81,76,72,96,88,69,30.05,29.92,28,3,28,0.55
2013-8-6,93,83,74,83,78,73,98,87,70,29.95,29.88,9,2,9,0.01
2013-8-7,91,84,76,83,79,74,96,85,73,29.96,29.85,10,3,10,0.00
2013-8-8,94,85,78,82,78,74,95,80,56,29.95,29.85,10,3,10,0.00
2013-8-9,96,85,74,82,77,72,98,79,52,30.02,29.92,11,2,11,0.00
2013-8-10,89,81,76,81,77,74,96,87,72,30.10,30.00,16,3,16,0.00
2013-8-11,93,83,75,80,76,73,97,81,58,30.12,30.01,12,2,12,0.00
2013-8-12,92,81,72,80,76,70,97,85,63,30.08,29.93,24,5,24,0.07
2013-8-13,83,76,73,78,74,72,99,95,80,30.04,29.92,13,2,13,0.46
2013-8-14,80,73,64,73,68,61,98,83,61,30.07,29.95,17,5,17,0.19
2013-8-15,79,69,60,66,62,58,94,80,54,30.08,30.01,11,3,11,0.00
2013-8-16,82,70,59,70,65,58,98,86,60,30.05,29.99,11,2,11,0.01
2013-8-17,82,73,68,74,70,66,97,88,68,30.08,30.00,13,2,13,0.06
2013-8-18,83,73,65,74,69,64,99,88,66,30.13,30.02,11,2,11,0.00
2013-8-19,86,75,64,74,70,64,99,85,63,30.10,29.99,7,1,9,0.00
2013-8-20,89,78,67,79,71,66,99,82,56,30.09,30.00,7,1,7,0.00
2013-8-21,94,81,72,78,74,70,97,81,53,30.13,30.04,11,1,11,0.00
2013-8-22,92,82,73,78,75,72,98,81,59,30.13,29.99,9,1,9,0.00
2013-8-23,91,81,71,78,74,70,99,81,55,30.07,29.97,11,2,11,0.00
2013-8-24,93,81,72,78,75,71,98,84,57,30.13,30.03,10,1,10,0.00
2013-8-25,89,80,72,78,74,71,98,84,64,30.25,30.13,11,2,11,0.00
2013-8-26,91,80,71,74,71,67,96,76,52,30.26,30.12,12,1,12,0.00
2013-8-27,89,78,66,71,68,64,96,72,48,30.17,30.05,8,1,8,0.00
2013-8-28,92,79,66,73,68,64,95,72,44,30.11,30.02,8,1,8,0.00
2013-8-29,94,80,67,75,70,65,96,74,47,30.10,29.98,9,1,9,0.00
2013-8-30,95,82,70,76,72,68,97,74,46,30.03,29.90,13,1,14,0.00
2013-8-31,96,84,71,77,74,69,96,74,49,29.96,29.83,13,2,13,0.00
2013-9-1,98,85,74,77,74,70,92,71,42,29.91,29.79,13,3,13,0.00
2013-9-2,89,80,73,78,74,70,96,83,62,29.99,29.84,22,4,22,0.75
2013-9-3,91,80,69,77,71,63,99,77,49,30.03,29.91,13,2,13,0.00
2013-9-4,90,77,65,70,66,62,94,72,44,30.11,30.00,11,2,11,0.00
2013-9-5,92,78,66,75,69,64,94,75,46,30.14,30.05,11,3,11,0.00
2013-9-6,94,80,69,76,69,63,90,72,38,30.13,30.01,11,2,11,0.00
2013-9-7,95,80,66,74,68,64,94,71,40,30.08,29.95,8,1,8,0.00
2013-9-8,97,83,72,75,71,67,90,70,43,30.00,29.90,9,1,9,0.00
2013-9-9,96,83,72,75,71,68,91,69,42,30.05,29.94,13,2,13,0.00
2013-9-10,98,83,72,75,72,69,94,71,42,30.13,30.02,13,1,13,0.03
2013-9-11,95,83,73,76,72,69,94,72,45,30.15,30.04,10,1,10,0.00
2013-9-12,96,83,73,73,70,67,89,67,41,30.07,29.92,11,1,11,0.00
2013-9-13,89,79,74,71,67,59,91,70,40,30.00,29.91,17,5,17,0.00
2013-9-14,78,69,60,60,56,52,76,65,54,30.05,29.94,7,4,8,0.00
2013-9-15,91,70,51,62,55,49,96,64,25,30.11,30.02,8,1,9,0.00
2013-9-16,94,76,59,68,60,54,94,63,27,30.14,30.04,14,2,14,0.00
2013-9-17,94,79,66,69,65,62,95,66,38,30.14,30.01,10,2,10,0.00
2013-9-18,93,81,71,75,69,64,90,70,46,30.10,29.98,12,2,12,0.00
2013-9-19,93,82,71,74,70,68,94,71,45,30.09,29.93,14,2,14,0.00
2013-9-20,78,75,71,76,72,69,98,93,75,29.99,29.81,17,3,17,2.74
2013-9-21,77,70,60,70,63,56,98,80,54,29.92,29.80,21,8,21,0.03
2013-9-22,78,66,55,58,56,53,97,73,44,29.95,29.85,22,4,22,0.01
2013-9-23,85,70,57,65,60,54,92,72,44,29.94,29.84,11,2,11,0.00
2013-9-24,84,74,70,74,70,63,98,87,68,29.90,29.79,9,1,9,0.53
2013-9-25,84,75,70,70,67,61,99,80,47,29.84,29.78,13,3,13,0.01
2013-9-26,87,74,63,71,66,61,97,80,53,29.98,29.84,6,1,10,0.00
2013-9-27,86,76,64,72,68,64,99,79,52,30.08,29.98,20,1,20,0.01
2013-9-28,85,74,66,68,65,63,89,73,54,30.12,29.99,17,2,17,0.00
2013-9-29,71,69,68,70,66,63,98,90,79,30.05,29.94,10,1,10,0.81
2013-9-30,82,73,69,74,71,68,99,91,74,29.97,29.88,12,1,12,0.15
2013-10-1,86,75,69,75,71,68,98,86,65,30.07,29.95,11,1,11,0.00
2013-10-2,82,75,70,72,70,66,93,85,64,30.11,30.01,11,1,11,0.10
2013-10-3,85,76,69,75,71,67,97,85,66,30.06,29.95,11,2,14,0.00
2013-10-4,86,77,71,76,73,70,98,87,67,30.05,29.96,16,2,16,0.00
2013-10-5,88,78,71,75,72,70,98,82,58,30.02,29.87,14,4,15,1.15
2013-10-6,71,64,58,71,56,49,98,79,48,30.01,29.89,20,6,20,0.64
2013-10-7,70,60,51,57,53,50,96,78,56,30.12,30.00,13,4,15,0.00
2013-10-8,74,61,52,56,52,49,93,74,44,30.15,30.05,16,4,16,0.00
2013-10-9,79,66,52,66,60,51,98,83,58,30.15,30.05,9,1,9,0.00
2013-10-10,76,65,58,68,62,58,99,91,63,30.16,30.02,8,0,8,0.01
2013-10-11,82,70,58,68,63,58,99,81,53,30.07,29.96,14,2,14,0.01
2013-10-12,76,69,62,71,66,60,97,92,82,30.12,29.98,14,2,18,0.02
2013-10-13,78,69,65,68,66,62,99,89,70,30.26,30.12,16,4,16,0.01
2013-10-14,83,70,59,67,60,-100,93,75,48,30.21,30.04,11,-7,12,0.00
2013-10-15,76,71,68,69,66,64,96,85,76,30.07,29.93,13,3,13,0.02
2013-10-16,68,62,58,66,60,57,98,94,87,30.03,29.92,16,6,19,0.79
2013-10-17,68,61,53,59,56,52,96,85,62,30.06,29.97,12,4,12,0.02
2013-10-18,71,59,49,57,53,48,99,82,52,30.10,29.95,13,1,13,0.01
2013-10-19,60,55,44,57,50,42,96,83,60,30.10,29.94,18,4,18,0.00
2013-10-20,68,53,41,51,45,40,98,78,41,30.14,30.01,9,1,9,0.00
2013-10-21,74,59,46,55,50,44,96,76,40,30.09,29.98,12,2,12,0.01
2013-10-22,68,59,53,55,51,44,95,76,44,30.09,29.95,13,4,13,0.01
2013-10-23,62,54,46,51,46,42,93,75,49,30.19,29.99,15,4,15,0.00
2013-10-24,69,55,46,53,47,42,92,74,51,30.36,30.12,19,5,19,0.00
2013-10-25,54,52,51,46,44,43,76,74,72,30.35,30.26,8,7,10,0.43
2013-10-26,56,55,54,50,48,46,80,78,76,30.26,30.18,10,9,11,1.17
2013-10-27,58,57,56,53,52,50,84,82,80,30.18,30.09,12,11,13,1.91
2013-10-28,61,60,58,57,55,53,88,86,84,30.09,30.01,14,13,14,2.65
2013-10-29,63,62,61,60,59,57,91,90,88,30.01,29.92,15,14,16,3.40
2013-10-30,65,64,63,64,62,60,95,93,91,29.92,29.83,17,16,17,4.13
2013-10-31,71,68,63,70,66,55,98,94,73,29.83,29.63,25,15,25,2.97
2013-11-1,72,62,52,58,53,47,96,76,44,29.92,29.81,14,3,14,0.00
2013-11-2,60,55,45,53,48,42,93,78,60,30.24,29.91,22,6,22,0.00
2013-11-3,61,50,41,48,43,40,97,78,49,30.33,30.17,14,2,14,0.01
2013-11-4,68,57,48,54,49,43,86,75,54,30.30,30.19,15,2,18,0.00
2013-11-5,72,63,56,60,55,50,84,76,61,30.28,30.14,13,2,13,0.00
2013-11-6,66,59,48,64,55,45,98,89,82,30.27,30.05,27,5,27,0.21
2013-11-7,56,48,42,45,42,39,93,80,55,30.43,30.27,22,7,22,0.01
2013-11-8,63,50,39,48,43,38,98,79,47,30.41,30.23,8,1,9,0.00
2013-11-9,59,54,50,50,47,44,92,79,60,30.32,30.23,10,1,10,0.00
2013-11-10,64,58,52,56,52,47,96,84,67,30.36,30.28,11,2,11,0.00
2013-11-11,71,57,47,56,49,43,92,75,50,30.32,30.18,9,1,9,0.00
2013-11-12,55,43,34,52,35,26,96,73,52,30.67,30.24,34,14,34,0.01
2013-11-13,48,37,30,31,27,25,87,69,43,30.72,30.47,16,4,16,0.00
2013-11-14,58,42,28,38,30,25,94,66,31,30.47,30.17,15,2,15,0.00
2013-11-15,62,52,46,55,48,38,96,84,71,30.18,30.02,11,1,11,0.06
2013-11-16,68,61,53,67,60,52,99,96,90,30.06,29.88,18,3,18,0.04
2013-11-17,77,70,64,74,68,47,98,93,53,30.01,29.76,24,8,24,0.70
2013-11-18,64,57,48,51,44,39,84,63,50,30.24,30.01,18,6,18,0.00
2013-11-19,54,48,40,40,36,33,79,63,48,30.32,30.17,16,4,16,0.00
2013-11-20,65,50,37,46,40,32,87,68,47,30.19,30.08,11,2,11,0.00
2013-11-21,66,58,50,61,55,46,98,89,80,30.20,30.10,19,3,19,0.81
2013-11-22,61,56,45,61,54,43,99,95,89,30.37,30.15,25,9,25,0.76
2013-11-23,45,41,34,43,36,23,96,82,59,30.56,30.35,27,14,27,0.19
2013-11-24,36,32,27,27,24,20,79,73,62,30.66,30.45,25,11,25,0.00
2013-11-25,38,36,33,37,31,24,96,85,69,30.45,30.13,13,5,13,0.33
2013-11-26,41,39,37,38,36,32,97,91,77,30.17,29.94,22,11,22,0.08
2013-11-27,39,32,28,33,24,20,88,74,63,30.45,30.17,24,9,24,0.00
2013-11-28,44,33,25,33,28,23,92,81,58,30.52,30.43,10,2,10,0.00
2013-11-29,54,39,28,39,33,26,95,80,50,30.59,30.45,4,0,6,0.00
2013-11-30,58,44,32,43,36,29,96,76,50,30.48,30.25,17,2,17,0.01
2013-12-1,54,49,43,47,43,37,85,78,67,30.26,29.95,9,2,9,0.00
2013-12-2,61,55,50,57,52,47,98,90,83,29.95,29.74,7,1,7,0.00
2013-12-3,56,53,52,56,53,51,99,98,96,29.76,29.72,5,0,5,0.00
2013-12-4,51,47,43,51,46,42,98,97,95,30.06,29.87,8,6,12,0.00
2013-12-5,43,39,36,42,38,34,95,94,93,30.25,30.06,12,10,18,0.00
2013-12-6,36,32,28,34,30,26,93,92,90,30.46,30.25,22,14,23,1.06
2013-12-7,30,27,24,29,25,22,95,92,89,30.58,30.35,23,12,23,0.00
2013-12-8,34,32,30,34,32,29,98,97,95,30.36,30.12,10,2,10,0.22
2013-12-9,34,33,32,33,32,30,98,93,90,30.32,30.18,17,8,17,0.16
2013-12-10,38,33,29,34,30,26,97,88,77,30.50,30.26,19,5,19,0.00
2013-12-11,45,35,28,38,32,27,97,87,70,30.60,30.42,15,4,15,0.01
2013-12-12,44,34,28,34,27,22,88,76,52,30.67,30.42,18,4,18,0.00
2013-12-13,46,38,30,41,33,27,96,81,57,30.42,29.92,15,3,15,0.49
2013-12-14,46,43,38,45,41,34,99,91,81,30.20,29.84,22,8,22,0.48
2013-12-15,42,36,34,36,33,30,94,86,78,30.35,30.20,21,6,21,0.00
2013-12-16,56,43,33,44,38,32,96,83,59,30.31,30.19,16,7,17,0.00
2013-12-17,63,48,38,49,41,35,90,77,53,30.33,30.22,10,4,11,0.00
2013-12-18,60,47,35,46,40,33,95,78,59,30.38,30.16,14,2,14,0.00
2013-12-19,61,52,44,56,48,40,90,84,80,30.19,29.97,16,4,16,0.00
2013-12-20,68,64,58,65,61,55,94,91,86,30.01,29.84,27,7,27,0.00
2013-12-21,74,66,56,68,63,55,98,91,81,29.84,29.50,35,10,35,1.42
2013-12-22,57,50,38,56,48,33,98,93,84,30.30,29.75,19,8,19,0.00
2013-12-23,38,36,31,34,30,28,95,81,74,30.57,30.30,19,8,19,0.00
2013-12-24,38,32,29,30,28,25,94,84,66,30.67,30.45,16,4,16,0.00
2013-12-25,49,37,27,38,31,24,94,80,57,30.48,30.35,9,1,9,0.00
2013-12-26,48,39,32,39,33,30,96,82,60,30.49,30.39,13,3,13,0.00
2013-12-27,54,40,30,40,34,28,96,79,50,30.51,30.40,6,1,9,0.00
2013-12-28,46,42,37,43,39,34,97,87,76,30.40,30.01,6,1,7,0.03
2013-12-29,58,47,38,47,42,32,98,84,61,30.23,30.01,22,4,22,0.00
2013-12-30,38,33,31,32,30,28,94,88,78,30.43,30.21,19,7,19,0.01
2013-12-31,43,34,28,35,30,26,97,87,66,30.53,30.35,11,1,11,0.00
2014-1-1,53,42,29,47,38,27,95,85,62,30.35,30.00,16,2,16,0.03
2014-1-2,52,38,27,51,31,20,97,78,61,30.49,29.95,31,12,31,0.01